Time;durP1;ratioP1;P1;durP2;ratioP2;P2;SDS_P1;SDS_P2;PMS_P1;PMS_P2;Temp;Humidity;BMP_temperature;BMP_pressure;BME280_temperature;BME280_humidity;BME280_pressure;Samples;Min_cycle;Max_cycle;Signal;HPM_P1;HPM_P2
2021/10/16 00:00:51;;;;;;;7.50;1.37;;;;;;;;;;4801917;28;20613;-86
2021/10/16 00:03:14;;;;;;;9.83;1.77;;;8.90;46.40;;;;;;4820348;28;20258;-81
2021/10/16 00:05:38;;;;;;;5.10;1.10;;;8.70;47.30;;;;;;4832182;28;20186;-84
2021/10/16 00:08:00;;;;;;;10.83;1.87;;;8.40;46.20;;;;;;4837385;28;20273;-81
2021/10/16 00:10:23;;;;;;;5.63;1.10;;;7.90;46.00;;;;;;4837359;28;20223;-82
2021/10/16 00:12:46;;;;;;;4.43;0.97;;;;;;;;;;4818840;28;20195;-82
2021/10/16 00:15:09;;;;;;;6.43;1.27;;;8.40;45.90;;;;;;4820303;28;20194;-82
2021/10/16 00:17:32;;;;;;;7.10;1.40;;;;;;;;;;4837442;28;20183;-83
2021/10/16 00:19:55;;;;;;;7.63;1.47;;;;;;;;;;4837311;28;20195;-83
2021/10/16 00:22:20;;;;;;;6.13;1.20;;;8.60;45.80;;;;;;4837544;28;20249;-81
2021/10/16 00:24:43;;;;;;;4.80;1.07;;;8.50;46.00;;;;;;4837608;28;20236;-81
2021/10/16 00:27:06;;;;;;;11.17;1.93;;;8.60;46.80;;;;;;4803091;28;20192;-81
2021/10/16 00:29:29;;;;;;;3.30;0.83;;;8.60;45.90;;;;;;4803945;28;21005;-83
2021/10/16 00:31:51;;;;;;;8.00;1.53;;;;;;;;;;4819207;28;20254;-83
2021/10/16 00:34:15;;;;;;;7.23;1.37;;;8.70;46.40;;;;;;4819687;28;20616;-84
2021/10/16 00:36:38;;;;;;;5.00;1.10;;;;;;;;;;4820749;28;20723;-82
2021/10/16 00:39:02;;;;;;;14.80;2.50;;;8.60;46.90;;;;;;4819487;28;20265;-83
2021/10/16 00:41:25;;;;;;;6.27;1.30;;;8.40;46.00;;;;;;4818704;28;20250;-82
2021/10/16 00:43:48;;;;;;;3.33;0.80;;;;;;;;;;4819545;28;20234;-81
2021/10/16 00:46:11;;;;;;;6.53;1.30;;;9.10;46.30;;;;;;4819957;28;20250;-82
2021/10/16 00:48:33;;;;;;;4.40;0.87;;;;;;;;;;4803575;28;20196;-82
2021/10/16 00:50:56;;;;;;;10.03;1.83;;;;;;;;;;4819448;28;20215;-83
2021/10/16 00:53:20;;;;;;;5.53;1.17;;;;;;;;;;4819455;28;20626;-82
2021/10/16 00:55:44;;;;;;;4.97;1.03;;;8.20;47.00;;;;;;4819777;28;20203;-83
2021/10/16 00:58:07;;;;;;;3.87;0.90;;;;;;;;;;4819475;28;20226;-81
2021/10/16 01:00:30;;;;;;;43.07;6.63;;;8.10;46.90;;;;;;4834254;28;20213;-82
2021/10/16 01:02:53;;;;;;;9.13;1.70;;;;;;;;;;4803325;28;20615;-81
2021/10/16 01:05:17;;;;;;;5.10;1.07;;;;;;;;;;4819698;28;20195;-81
2021/10/16 01:07:41;;;;;;;5.60;1.13;;;7.40;46.70;;;;;;4823916;28;20222;-81
2021/10/16 01:10:04;;;;;;;7.43;1.50;;;7.80;46.70;;;;;;4816139;28;20286;-82
2021/10/16 01:12:30;;;;;;;2.57;0.60;;;7.80;46.50;;;;;;4809678;28;20204;-83
2021/10/16 01:14:55;;;;;;;9.73;1.80;;;7.60;46.50;;;;;;4817034;28;20200;-82
2021/10/16 01:17:19;;;;;;;6.03;1.27;;;7.50;45.50;;;;;;4817856;28;20195;-82
2021/10/16 01:19:43;;;;;;;4.97;1.13;;;7.30;46.30;;;;;;4800447;28;20188;-82
2021/10/16 01:22:07;;;;;;;10.03;1.83;;;7.20;46.20;;;;;;4816576;28;20203;-80
2021/10/16 01:24:30;;;;;;;5.57;1.17;;;;;;;;;;4814561;28;20195;-81
2021/10/16 01:26:53;;;;;;;9.60;1.73;;;8.00;45.30;;;;;;4820786;28;20205;-83
2021/10/16 01:29:18;;;;;;;6.60;1.30;;;7.20;45.50;;;;;;4820607;28;20262;-86
2021/10/16 01:31:41;;;;;;;4.40;1.00;;;7.00;44.60;;;;;;4803781;28;20212;-82
2021/10/16 01:34:04;;;;;;;10.57;1.93;;;;;;;;;;4820065;28;20227;-83
2021/10/16 01:36:27;;;;;;;2.77;0.70;;;;;;;;;;4818225;28;20238;-87
2021/10/16 01:38:51;;;;;;;5.70;1.13;;;7.20;45.20;;;;;;4816677;28;20242;-82
2021/10/16 01:41:14;;;;;;;6.03;1.13;;;7.10;44.30;;;;;;4804757;28;20196;-84
2021/10/16 01:43:37;;;;;;;5.33;1.03;;;7.40;44.80;;;;;;4819984;28;20199;-84
2021/10/16 01:46:00;;;;;;;10.10;1.87;;;7.50;44.60;;;;;;4820071;28;20626;-82
2021/10/16 01:48:24;;;;;;;6.23;1.23;;;7.70;44.80;;;;;;4787362;28;20843;-81
2021/10/16 01:50:47;;;;;;;3.77;0.90;;;;;;;;;;4819544;28;20234;-80
2021/10/16 01:53:24;;;;;;;4.20;0.90;;;8.10;44.90;;;;;;4804137;28;20195;-83
2021/10/16 01:55:54;;;;;;;11.13;2.03;;;7.70;45.00;;;;;;4804774;28;20238;-82
2021/10/16 01:58:20;;;;;;;5.97;1.40;;;;;;;;;;4803030;28;20607;-82
2021/10/16 02:01:00;;;;;;;8.53;1.77;;;7.90;45.20;;;;;;4818047;28;20223;-82
2021/10/16 02:03:22;;;;;;;4.40;1.10;;;7.90;45.20;;;;;;4818658;28;20301;-82
2021/10/16 02:05:57;;;;;;;7.47;1.60;;;8.00;45.20;;;;;;4803486;28;20249;-82
2021/10/16 02:08:30;;;;;;;3.87;0.97;;;7.60;45.70;;;;;;4800776;28;20258;-81
2021/10/16 02:10:54;;;;;;;6.17;1.33;;;8.20;45.80;;;;;;4816316;28;20273;-81
2021/10/16 02:13:17;;;;;;;4.30;1.10;;;7.90;45.20;;;;;;4819184;28;20199;-80
2021/10/16 02:16:08;;;;;;;3.43;0.83;;;7.90;45.30;;;;;;4809262;28;20215;-82
2021/10/16 02:18:41;;;;;;;5.63;1.20;;;8.10;45.40;;;;;;4819268;28;20748;-81
2021/10/16 02:21:04;;;;;;;7.60;1.73;;;8.10;46.00;;;;;;4800428;28;20706;-81
2021/10/16 02:23:28;;;;;;;1.73;0.60;;;8.00;45.40;;;;;;4817546;28;20299;-83
2021/10/16 02:25:51;;;;;;;5.40;1.17;;;;;;;;;;4803464;28;20268;-83
2021/10/16 02:28:15;;;;;;;5.53;1.17;;;7.90;45.40;;;;;;4820566;28;20241;-82
2021/10/16 02:30:50;;;;;;;5.13;1.13;;;8.20;45.50;;;;;;4818946;28;20199;-83
2021/10/16 02:33:12;;;;;;;3.83;1.03;;;7.70;45.40;;;;;;4818972;28;20207;-83
2021/10/16 02:35:36;;;;;;;4.23;1.03;;;7.60;46.10;;;;;;4819489;28;20234;-85
2021/10/16 02:37:59;;;;;;;10.00;2.10;;;8.10;46.00;;;;;;4803289;28;20254;-81
2021/10/16 02:40:21;;;;;;;5.47;1.27;;;7.50;46.00;;;;;;4818555;28;20258;-82
2021/10/16 02:42:44;;;;;;;3.97;1.00;;;8.10;45.60;;;;;;4819552;28;20618;-83
2021/10/16 02:45:10;;;;;;;2.93;0.77;;;8.00;46.40;;;;;;4818595;28;20234;-79
2021/10/16 02:47:32;;;;;;;4.17;1.00;;;;;;;;;;4819249;28;20681;-80
2021/10/16 02:49:55;;;;;;;9.13;1.87;;;8.10;46.50;;;;;;4818608;28;20685;-79
2021/10/16 02:52:18;;;;;;;3.70;0.93;;;9.30;46.90;;;;;;4818476;28;20227;-80
2021/10/16 02:54:42;;;;;;;3.80;1.00;;;8.00;46.50;;;;;;4803155;28;20673;-81
2021/10/16 02:57:06;;;;;;;5.60;1.30;;;7.30;45.50;;;;;;4818834;28;20234;-82
2021/10/16 02:59:28;;;;;;;2.83;0.80;;;;;;;;;;4820686;28;20206;-81
2021/10/16 03:01:56;;;;;;;8.40;1.77;;;8.00;45.70;;;;;;4816989;28;20219;-81
2021/10/16 03:04:26;;;;;;;3.27;0.90;;;8.10;45.70;;;;;;4810784;28;20726;-82
2021/10/16 03:06:49;;;;;;;3.13;0.87;;;8.10;45.70;;;;;;4818750;28;20195;-80
2021/10/16 03:09:16;;;;;;;5.80;1.40;;;8.40;46.20;;;;;;4808235;28;20743;-80
2021/10/16 03:11:40;;;;;;;2.93;0.80;;;8.50;45.90;;;;;;4809970;28;20782;-82
2021/10/16 03:14:03;;;;;;;7.07;1.60;;;8.30;46.00;;;;;;4811450;28;20599;-80
2021/10/16 03:16:28;;;;;;;3.67;1.00;;;8.40;46.10;;;;;;4789520;28;20200;-80
2021/10/16 03:18:54;;;;;;;8.40;1.73;;;8.20;46.60;;;;;;4807573;28;20187;-82
2021/10/16 03:21:16;;;;;;;5.57;1.20;;;8.30;45.80;;;;;;4788023;28;20613;-81
2021/10/16 03:23:40;;;;;;;5.03;1.30;;;;;;;;;;4807440;28;20208;-80
2021/10/16 03:26:03;;;;;;;7.43;1.67;;;8.40;46.60;;;;;;4808518;28;20196;-80
2021/10/16 03:28:25;;;;;;;5.07;1.23;;;7.70;45.60;;;;;;4808163;28;20261;-80
2021/10/16 03:30:48;;;;;;;5.50;1.20;;;8.20;46.30;;;;;;4807512;28;20204;-81
2021/10/16 03:33:11;;;;;;;5.40;1.20;;;8.10;45.80;;;;;;4810357;28;20570;-79
2021/10/16 03:35:36;;;;;;;3.13;0.80;;;8.20;45.80;;;;;;4783371;28;20292;-80
2021/10/16 03:37:59;;;;;;;8.63;1.77;;;8.20;46.60;;;;;;4801181;28;20192;-81
2021/10/16 03:40:21;;;;;;;4.57;1.20;;;8.50;46.50;;;;;;4793265;28;20204;-80
2021/10/16 03:42:44;;;;;;;3.93;0.97;;;8.10;45.70;;;;;;4809879;28;20199;-80
2021/10/16 03:45:12;;;;;;;5.67;1.30;;;8.20;45.80;;;;;;4791846;28;20255;-81
2021/10/16 03:47:35;;;;;;;3.90;1.00;;;;;;;;;;4808169;28;20231;-80
2021/10/16 03:49:57;;;;;;;5.23;1.30;;;;;;;;;;4804443;28;20196;-81
2021/10/16 03:52:21;;;;;;;4.63;1.13;;;8.10;45.70;;;;;;4808504;28;20523;-81
2021/10/16 03:54:48;;;;;;;4.20;1.03;;;8.30;46.00;;;;;;4805576;28;20231;-81
2021/10/16 03:57:11;;;;;;;5.87;1.40;;;8.20;46.30;;;;;;4805351;28;20208;-80
2021/10/16 03:59:36;;;;;;;3.30;0.90;;;;;;;;;;4793470;28;20195;-81
2021/10/16 04:01:59;;;;;;;8.67;1.87;;;8.60;46.10;;;;;;4807429;28;20277;-81
2021/10/16 04:04:21;;;;;;;5.13;1.30;;;8.30;45.70;;;;;;4806493;28;20251;-80
2021/10/16 04:06:44;;;;;;;3.93;1.00;;;;;;;;;;4808180;28;20191;-80
2021/10/16 04:09:09;;;;;;;3.00;0.83;;;8.30;45.60;;;;;;4800278;28;20227;-80
2021/10/16 04:11:33;;;;;;;4.20;1.03;;;8.00;45.60;;;;;;4817848;28;20238;-80
2021/10/16 04:14:16;;;;;;;5.67;1.30;;;8.10;45.60;;;;;;4817593;28;20187;-83
2021/10/16 04:16:59;;;;;;;8.37;1.83;;;;;;;;;;4804065;28;20186;-83
2021/10/16 04:19:30;;;;;;;4.80;1.10;;;;;;;;;;4802141;28;20187;-79
2021/10/16 04:22:12;;;;;;;4.80;1.10;;;8.00;45.60;;;;;;4817073;28;20183;-80
2021/10/16 04:24:54;;;;;;;4.50;1.07;;;8.20;45.60;;;;;;4803394;28;20270;-82
2021/10/16 04:27:17;;;;;;;3.57;0.90;;;8.00;45.60;;;;;;4817271;28;20273;-80
2021/10/16 04:29:51;;;;;;;4.67;1.07;;;7.90;45.50;;;;;;4816989;28;20199;-80
2021/10/16 04:32:21;;;;;;;5.60;1.30;;;8.00;45.60;;;;;;4800979;28;20254;-79
2021/10/16 04:34:44;;;;;;;3.93;0.97;;;8.10;46.40;;;;;;4800756;28;20224;-80
2021/10/16 04:37:06;;;;;;;3.43;0.83;;;;;;;;;;4816397;28;20618;-80
2021/10/16 04:39:29;;;;;;;3.63;0.97;;;8.20;45.60;;;;;;4817652;28;20195;-80
2021/10/16 04:41:54;;;;;;;6.20;1.43;;;8.20;45.60;;;;;;4801238;28;20265;-80
2021/10/16 04:44:17;;;;;;;5.93;1.27;;;;;;;;;;4817261;28;20728;-80
2021/10/16 04:46:40;;;;;;;4.00;0.90;;;8.30;45.60;;;;;;4817438;28;20191;-86
2021/10/16 04:49:04;;;;;;;7.70;1.63;;;8.20;46.50;;;;;;4818374;28;20586;-80
2021/10/16 04:51:29;;;;;;;2.87;0.77;;;8.10;45.70;;;;;;4816392;28;20207;-83
2021/10/16 04:53:52;;;;;;;6.97;1.43;;;;;;;;;;4814309;28;20262;-82
2021/10/16 04:56:16;;;;;;;5.47;1.23;;;8.20;45.70;;;;;;4816314;28;20203;-82
2021/10/16 04:58:40;;;;;;;3.90;0.97;;;8.50;45.80;;;;;;4818565;28;20598;-81
2021/10/16 05:01:03;;;;;;;8.77;1.80;;;;;;;;;;4802549;28;20212;-79
2021/10/16 05:03:26;;;;;;;4.37;1.00;;;;;;;;;;4794675;28;20263;-82
2021/10/16 05:05:49;;;;;;;4.97;1.10;;;7.80;45.60;;;;;;4818899;28;20242;-80
2021/10/16 05:08:15;;;;;;;5.57;1.20;;;;;;;;;;4820106;28;20218;-81
2021/10/16 05:10:37;;;;;;;4.03;1.00;;;8.20;45.80;;;;;;4804656;28;20255;-80
2021/10/16 05:13:03;;;;;;;8.53;1.77;;;8.20;46.60;;;;;;4803814;28;20228;-80
2021/10/16 05:15:27;;;;;;;2.70;0.77;;;8.00;45.70;;;;;;4804556;28;20208;-80
2021/10/16 05:17:50;;;;;;;7.10;1.53;;;;;;;;;;4819725;28;20246;-80
2021/10/16 05:20:17;;;;;;;6.17;1.47;;;8.10;45.70;;;;;;4820299;28;20199;-80
2021/10/16 05:22:47;;;;;;;3.67;0.87;;;8.40;45.80;;;;;;4803577;28;20661;-80
2021/10/16 05:25:11;;;;;;;6.33;1.30;;;8.10;45.70;;;;;;4804428;28;20642;-81
2021/10/16 05:27:34;;;;;;;4.27;1.00;;;8.90;46.30;;;;;;4836747;28;20183;-81
2021/10/16 05:29:57;;;;;;;9.17;1.77;;;8.40;45.80;;;;;;4820477;28;20249;-82
2021/10/16 05:32:21;;;;;;;4.77;1.10;;;8.20;46.50;;;;;;4820167;28;20277;-81
2021/10/16 05:34:44;;;;;;;4.13;1.00;;;8.30;45.70;;;;;;4788199;28;20188;-83
2021/10/16 05:37:08;;;;;;;3.30;0.83;;;;;;;;;;4804209;28;20823;-81
2021/10/16 05:39:32;;;;;;;4.23;1.00;;;;;;;;;;4820606;28;20681;-81
2021/10/16 05:41:54;;;;;;;8.57;1.80;;;8.50;46.50;;;;;;4820124;28;20250;-81
2021/10/16 05:44:17;;;;;;;5.67;1.33;;;8.30;45.80;;;;;;4820216;28;20610;-81
2021/10/16 05:46:41;;;;;;;3.47;0.93;;;;;;;;;;4820527;28;20215;-82
2021/10/16 05:49:06;;;;;;;7.67;1.53;;;8.40;45.80;;;;;;4820239;28;20247;-81
2021/10/16 05:51:30;;;;;;;3.90;0.97;;;8.70;46.40;;;;;;4819982;28;20653;-82
2021/10/16 05:53:52;;;;;;;5.60;1.20;;;8.50;45.80;;;;;;4803773;28;20220;-82
2021/10/16 05:56:16;;;;;;;7.17;1.53;;;8.20;46.00;;;;;;4803719;28;20275;-82
2021/10/16 05:58:39;;;;;;;4.43;1.03;;;;;;;;;;4819392;28;20195;-81
2021/10/16 06:01:03;;;;;;;9.17;1.87;;;8.40;46.70;;;;;;4818039;28;20219;-81
2021/10/16 06:03:32;;;;;;;3.47;1.00;;;8.50;46.40;;;;;;4802456;28;20645;-82
2021/10/16 06:05:57;;;;;;;13.67;2.60;;;8.50;46.70;;;;;;4810589;28;20666;-81
2021/10/16 06:08:22;;;;;;;6.50;1.43;;;8.50;45.80;;;;;;4809775;28;20228;-80
2021/10/16 06:10:44;;;;;;;4.07;1.00;;;7.90;45.60;;;;;;4802920;28;20311;-81
2021/10/16 06:13:07;;;;;;;4.57;1.13;;;;;;;;;;4802745;28;20232;-81
2021/10/16 06:15:30;;;;;;;5.60;1.20;;;;;;;;;;4819086;28;20200;-84
2021/10/16 06:17:53;;;;;;;6.83;1.47;;;;;;;;;;4817193;28;20303;-82
2021/10/16 06:20:17;;;;;;;6.20;1.40;;;8.30;46.00;;;;;;4803155;28;20200;-84
2021/10/16 06:22:41;;;;;;;4.27;0.97;;;7.60;45.50;;;;;;4819313;28;20199;-85
2021/10/16 06:25:05;;;;;;;7.50;1.57;;;8.80;45.80;;;;;;4802472;28;20654;-81
2021/10/16 06:27:28;;;;;;;2.97;0.80;;;;;;;;;;4807775;28;20231;-82
2021/10/16 06:29:51;;;;;;;6.80;1.43;;;8.60;45.80;;;;;;4798929;28;20816;-85
2021/10/16 06:32:14;;;;;;;6.47;1.30;;;8.90;45.90;;;;;;4818755;28;20242;-82
2021/10/16 06:34:41;;;;;;;3.33;0.80;;;;;;;;;;4819277;28;20227;-82
2021/10/16 06:37:04;;;;;;;7.43;1.53;;;8.70;46.00;;;;;;4819023;28;20199;-80
2021/10/16 06:39:28;;;;;;;3.40;0.87;;;8.70;46.80;;;;;;4811248;28;20748;-81
2021/10/16 06:41:56;;;;;;;7.63;1.53;;;;;;;;;;4784013;28;20192;-82
2021/10/16 06:44:36;;;;;;;4.60;1.13;;;;;;;;;;4818963;28;20607;-83
2021/10/16 06:47:17;;;;;;;4.60;1.10;;;8.70;46.50;;;;;;4820050;28;20183;-81
2021/10/16 06:49:41;;;;;;;4.70;1.00;;;9.20;46.20;;;;;;4818610;28;20859;-82
2021/10/16 06:52:04;;;;;;;5.83;1.33;;;9.10;46.90;;;;;;4818792;28;20248;-80
2021/10/16 06:54:28;;;;;;;3.37;0.87;;;8.90;46.90;;;;;;4818394;28;20231;-83
2021/10/16 06:56:50;;;;;;;8.27;1.60;;;9.10;46.10;;;;;;4818313;28;20204;-82
2021/10/16 06:59:15;;;;;;;9.97;1.83;;;;;;;;;;4802244;28;20223;-82
2021/10/16 07:01:37;;;;;;;5.07;1.10;;;9.00;47.00;;;;;;4817010;28;20760;-82
2021/10/16 07:04:09;;;;;;;6.07;1.23;;;9.70;46.90;;;;;;4818310;28;20207;-80
2021/10/16 07:06:32;;;;;;;5.27;1.20;;;9.60;46.80;;;;;;4802729;28;20200;-80
2021/10/16 07:08:56;;;;;;;9.60;1.83;;;;;;;;;;4802027;28;20223;-82
2021/10/16 07:11:20;;;;;;;5.27;1.20;;;9.70;47.40;;;;;;4834472;28;20194;-81
2021/10/16 07:13:43;;;;;;;4.67;1.07;;;;;;;;;;4820867;28;20285;-80
2021/10/16 07:16:06;;;;;;;10.20;1.80;;;9.90;47.70;;;;;;4815022;28;20565;-81
2021/10/16 07:18:29;;;;;;;2.47;0.63;;;10.10;46.50;;;;;;4819891;28;20798;-80
2021/10/16 07:20:52;;;;;;;9.83;1.83;;;10.20;46.60;;;;;;4799038;28;20192;-81
2021/10/16 07:23:20;;;;;;;4.97;1.03;;;8.70;47.40;;;;;;4801228;28;20192;-82
2021/10/16 07:25:43;;;;;;;5.90;1.33;;;9.90;47.80;;;;;;4816147;28;20199;-80
2021/10/16 07:28:07;;;;;;;3.63;0.77;;;10.80;47.80;;;;;;4799690;28;20204;-79
2021/10/16 07:30:30;;;;;;;4.53;0.90;;;10.00;46.70;;;;;;4801220;28;20188;-83
2021/10/16 07:32:53;;;;;;;8.93;1.70;;;;;;;;;;4799649;28;20204;-82
2021/10/16 07:35:16;;;;;;;6.00;1.13;;;;;;;;;;4799925;28;20204;-87
2021/10/16 07:37:39;;;;;;;11.87;2.23;;;;;;;;;;4787306;28;20292;-81
2021/10/16 07:40:02;;;;;;;10.13;1.97;;;10.90;47.40;;;;;;4811340;28;20269;-81
2021/10/16 07:42:24;;;;;;;5.20;1.10;;;11.00;47.90;;;;;;4817156;28;20191;-80
2021/10/16 07:44:48;;;;;;;4.37;0.97;;;11.20;49.20;;;;;;4815125;28;20207;-80
2021/10/16 07:47:11;;;;;;;5.70;1.27;;;11.30;49.40;;;;;;4818666;28;20600;-81
2021/10/16 07:49:34;;;;;;;7.27;1.40;;;;;;;;;;4819151;28;20541;-81
2021/10/16 07:51:57;;;;;;;11.47;2.00;;;;;;;;;;4817973;28;20203;-82
2021/10/16 07:54:22;;;;;;;6.80;1.20;;;12.20;49.20;;;;;;4818909;28;20311;-83
2021/10/16 07:56:44;;;;;;;4.53;1.00;;;11.40;48.80;;;;;;4819047;28;20262;-83
2021/10/16 07:59:07;;;;;;;4.90;1.00;;;;;;;;;;4817410;28;20258;-82
2021/10/16 08:01:31;;;;;;;3.43;0.83;;;11.30;49.80;;;;;;4832325;28;20272;-82
2021/10/16 08:03:54;;;;;;;7.63;1.33;;;;;;;;;;4819283;28;20253;-81
2021/10/16 08:06:17;;;;;;;4.87;1.10;;;;;;;;;;4817615;28;20206;-77
2021/10/16 08:08:43;;;;;;;4.40;0.93;;;;;;;;;;4798814;28;20219;-82
2021/10/16 08:11:25;;;;;;;6.97;1.40;;;;;;;;;;4832230;28;20281;-83
2021/10/16 08:13:48;;;;;;;6.97;1.33;;;11.20;49.50;;;;;;4833250;28;20214;-80
2021/10/16 08:16:11;;;;;;;5.97;1.20;;;11.30;48.90;;;;;;4817049;28;20236;-83
2021/10/16 08:18:35;;;;;;;6.70;1.37;;;11.40;49.90;;;;;;4833061;28;20967;-78
2021/10/16 08:20:58;;;;;;;8.33;1.57;;;11.00;48.80;;;;;;4817688;28;20727;-83
2021/10/16 08:23:20;;;;;;;3.67;0.83;;;;;;;;;;4816364;28;20246;-84
2021/10/16 08:25:43;;;;;;;5.67;1.10;;;11.70;49.80;;;;;;4818123;28;20234;-83
2021/10/16 08:28:08;;;;;;;10.13;1.87;;;11.50;49.90;;;;;;4817735;28;20200;-85
2021/10/16 08:30:31;;;;;;;3.97;0.87;;;;;;;;;;4817062;28;20576;-84
2021/10/16 08:32:54;;;;;;;13.50;2.37;;;;;;;;;;4817549;28;20245;-81
2021/10/16 08:35:18;;;;;;;4.40;0.90;;;11.80;50.20;;;;;;4818229;28;20372;-80
2021/10/16 08:37:40;;;;;;;5.50;1.10;;;11.90;49.40;;;;;;4797482;28;20192;-85
2021/10/16 08:40:04;;;;;;;8.10;1.63;;;12.20;49.60;;;;;;4817440;28;20196;-82
2021/10/16 08:42:27;;;;;;;3.57;0.83;;;;;;;;;;4816971;28;20208;-78
2021/10/16 08:44:51;;;;;;;7.40;1.33;;;;;;;;;;4817653;28;20274;-79
2021/10/16 08:47:17;;;;;;;7.60;1.40;;;11.80;50.40;;;;;;4816987;28;20262;-83
2021/10/16 08:49:41;;;;;;;5.73;1.10;;;11.90;49.50;;;;;;4801360;28;20685;-86
2021/10/16 08:52:05;;;;;;;8.90;1.60;;;12.00;50.50;;;;;;4818785;28;20245;-84
2021/10/16 08:54:29;;;;;;;2.43;0.70;;;12.20;50.20;;;;;;4817692;28;20223;-83
2021/10/16 08:56:52;;;;;;;7.93;1.53;;;;;;;;;;4817295;28;20200;-84
2021/10/16 08:59:15;;;;;;;7.37;1.33;;;12.20;49.80;;;;;;4817393;28;20208;-86
2021/10/16 09:01:56;;;;;;;5.00;0.93;;;12.20;50.90;;;;;;4815225;28;20351;-85
2021/10/16 09:04:21;;;;;;;7.90;1.50;;;12.30;50.90;;;;;;4817748;28;20602;-83
2021/10/16 09:06:44;;;;;;;6.23;1.13;;;;;;;;;;4816075;28;20207;-82
2021/10/16 09:09:09;;;;;;;5.73;1.03;;;12.50;51.00;;;;;;4816309;28;20231;-83
2021/10/16 09:11:34;;;;;;;5.47;1.20;;;12.60;51.20;;;;;;4817046;28;20211;-85
2021/10/16 09:14:00;;;;;;;12.10;2.07;;;12.70;51.30;;;;;;4811484;28;20180;-81
2021/10/16 09:16:31;;;;;;;6.30;1.23;;;12.90;50.40;;;;;;4816849;28;20199;-84
2021/10/16 09:18:56;;;;;;;11.47;1.87;;;12.70;51.30;;;;;;4801363;28;20290;-83
2021/10/16 09:21:19;;;;;;;7.90;1.43;;;;;;;;;;4816726;28;20598;-84
2021/10/16 09:23:42;;;;;;;5.87;1.10;;;;;;;;;;4817222;28;20203;-81
2021/10/16 09:26:08;;;;;;;12.83;2.17;;;12.90;51.60;;;;;;4832835;28;20249;-84
2021/10/16 09:28:31;;;;;;;6.33;1.10;;;;;;;;;;4828485;28;20191;-84
2021/10/16 09:30:53;;;;;;;11.63;1.93;;;;;;;;;;4818213;28;20711;-88
2021/10/16 09:33:19;;;;;;;5.23;1.07;;;;;;;;;;4832930;28;20195;-81
2021/10/16 09:35:42;;;;;;;5.73;1.10;;;;;;;;;;4816630;28;20584;-83
2021/10/16 09:38:05;;;;;;;10.93;1.83;;;13.70;52.20;;;;;;4818219;28;20195;-89
2021/10/16 09:40:35;;;;;;;5.40;1.00;;;14.30;52.50;;;;;;4817196;28;20199;-80
2021/10/16 09:42:59;;;;;;;10.40;1.67;;;15.60;53.30;;;;;;4816421;28;20270;-86
2021/10/16 09:45:22;;;;;;;7.87;1.23;;;;;;;;;;4819155;28;20195;-84
2021/10/16 09:47:54;;;;;;;6.00;1.13;;;18.90;56.50;;;;;;4820606;28;20184;-86
2021/10/16 09:50:17;;;;;;;5.10;0.90;;;;;;;;;;4819797;28;20246;-83
2021/10/16 09:52:42;;;;;;;7.23;1.20;;;22.90;59.80;;;;;;4836610;28;20640;-85
2021/10/16 09:55:07;;;;;;;13.20;2.07;;;24.20;61.10;;;;;;4811742;28;20284;-82
2021/10/16 09:57:30;;;;;;;5.97;0.93;;;23.80;61.10;;;;;;4820306;28;20602;-84
2021/10/16 09:59:55;;;;;;;13.43;2.07;;;22.80;60.60;;;;;;4820031;28;20658;-82
2021/10/16 10:02:17;;;;;;;6.27;1.00;;;21.60;60.20;;;;;;4818410;28;20223;-80
2021/10/16 10:04:42;;;;;;;4.27;0.80;;;20.30;59.60;;;;;;4820604;28;20195;-83
2021/10/16 10:07:05;;;;;;;11.03;1.73;;;;;;;;;;4823304;28;20195;-86
2021/10/16 10:09:30;;;;;;;3.87;0.70;;;18.50;58.50;;;;;;4823091;28;20199;-83
2021/10/16 10:11:53;;;;;;;10.37;1.57;;;17.80;58.10;;;;;;4806381;28;20272;-80
2021/10/16 10:14:19;;;;;;;5.47;0.93;;;17.30;57.80;;;;;;4823328;28;20244;-84
2021/10/16 10:16:43;;;;;;;10.57;1.67;;;16.80;57.50;;;;;;4806195;28;20226;-82
2021/10/16 10:19:07;;;;;;;19.10;2.97;;;16.50;57.30;;;;;;4817331;28;20258;-80
2021/10/16 10:21:34;;;;;;;4.87;0.87;;;16.40;56.80;;;;;;4821854;28;20661;-81
2021/10/16 10:23:58;;;;;;;10.47;1.63;;;16.40;57.10;;;;;;4821705;28;20783;-82
2021/10/16 10:26:29;;;;;;;254.60;127.87;;;;;;;;;;4837576;28;20190;-83
2021/10/16 10:28:53;;;;;;;171.00;107.87;;;17.90;57.90;;;;;;4821688;28;20207;-83
2021/10/16 10:31:36;;;;;;;70.47;47.80;;;;;;;;;;4821278;28;20239;-82
2021/10/16 10:34:04;;;;;;;283.27;144.60;;;21.90;59.90;;;;;;4821255;28;20261;-81
2021/10/16 10:36:27;;;;;;;7.73;1.10;;;;;;;;;;4813859;28;20698;-81
2021/10/16 10:38:50;;;;;;;11.03;1.43;;;;;;;;;;4805404;28;20252;-79
2021/10/16 10:41:30;;;;;;;15.53;1.97;;;27.20;47.90;;;;;;4805382;28;20211;-84
2021/10/16 10:43:55;;;;;;;18.40;2.33;;;28.50;48.60;;;;;;4820981;28;20661;-78
2021/10/16 10:46:23;;;;;;;17.00;2.30;;;27.80;48.40;;;;;;4820573;28;20265;-83
2021/10/16 10:48:47;;;;;;;16.33;5.10;;;26.10;47.80;;;;;;4834083;28;20192;-81
2021/10/16 10:51:26;;;;;;;30.77;28.03;;;24.80;62.20;;;;;;4822240;28;20683;-81
2021/10/16 10:53:49;;;;;;;6.30;1.00;;;;;;;;;;4837803;28;20623;-84
2021/10/16 10:56:23;;;;;;;13.03;1.67;;;22.10;60.90;;;;;;4837163;28;20215;-83
2021/10/16 10:59:11;;;;;;;9.83;1.30;;;21.00;60.30;;;;;;4838869;28;20715;-82
2021/10/16 11:02:00;;;;;;;10.70;1.47;;;19.90;59.70;;;;;;4830198;28;20239;-86
2021/10/16 11:04:49;;;;;;;14.60;2.07;;;18.90;59.30;;;;;;4787877;28;20286;-78
2021/10/16 11:07:18;;;;;;;16.83;6.50;;;17.80;58.70;;;;;;4820420;28;20282;-81
2021/10/16 11:09:42;;;;;;;18.93;6.07;;;16.90;58.20;;;;;;4837898;28;20257;-82
2021/10/16 11:12:05;;;;;;;22.03;2.77;;;16.30;56.40;;;;;;4838317;28;20183;-81
2021/10/16 11:14:32;;;;;;;6.00;0.93;;;17.10;57.90;;;;;;4837992;28;20186;-79
2021/10/16 11:16:54;;;;;;;13.53;2.07;;;;;;;;;;4837212;28;20215;-87
2021/10/16 11:19:17;;;;;;;9.13;1.60;;;;;;;;;;4804364;28;20243;-83
2021/10/16 11:21:41;;;;;;;4.90;0.90;;;14.40;56.50;;;;;;4838404;28;20191;-84
2021/10/16 11:24:07;;;;;;;10.77;1.80;;;14.20;56.30;;;;;;4838297;28;20178;-84
2021/10/16 11:26:29;;;;;;;5.90;1.20;;;;;;;;;;4819839;28;20203;-81
2021/10/16 11:28:52;;;;;;;7.27;1.40;;;;;;;;;;4838450;28;20241;-83
2021/10/16 11:31:15;;;;;;;5.93;1.17;;;;;;;;;;4838219;28;20604;-82
2021/10/16 11:33:39;;;;;;;5.17;1.20;;;13.90;55.50;;;;;;4820692;28;20657;-80
2021/10/16 11:36:02;;;;;;;9.40;1.90;;;;;;;;;;4836371;28;20658;-82
2021/10/16 11:38:32;;;;;;;6.07;1.27;;;13.90;55.50;;;;;;4820072;28;20187;-82
2021/10/16 11:40:58;;;;;;;8.90;1.70;;;13.80;55.40;;;;;;4836986;28;20186;-86
2021/10/16 11:43:22;;;;;;;6.00;1.30;;;14.10;54.40;;;;;;4820896;28;20242;-84
2021/10/16 11:45:48;;;;;;;4.13;1.00;;;14.00;55.40;;;;;;4821144;28;20267;-87
2021/10/16 11:48:13;;;;;;;3.73;0.93;;;14.20;55.40;;;;;;4837261;28;20195;-79
2021/10/16 11:50:38;;;;;;;6.33;1.27;;;14.80;55.80;;;;;;4820542;28;20179;-81
2021/10/16 11:53:11;;;;;;;8.37;1.73;;;15.20;56.00;;;;;;4800929;28;20187;-83
2021/10/16 11:55:34;;;;;;;6.20;1.33;;;;;;;;;;4812078;28;20199;-82
2021/10/16 11:58:04;;;;;;;6.70;1.50;;;17.00;57.00;;;;;;4836063;28;20264;-82
2021/10/16 12:00:28;;;;;;;27.93;5.30;;;20.00;58.70;;;;;;4835195;28;20209;-82
2021/10/16 12:02:52;;;;;;;4.67;1.10;;;20.90;59.60;;;;;;4803992;28;20200;-84
2021/10/16 12:05:16;;;;;;;5.93;1.30;;;20.80;59.70;;;;;;4819558;28;20195;-80
2021/10/16 12:07:39;;;;;;;5.13;1.13;;;20.40;58.50;;;;;;4819286;28;20285;-82
2021/10/16 12:10:17;;;;;;;8.17;1.67;;;19.40;59.00;;;;;;4836999;28;20205;-82
2021/10/16 12:12:40;;;;;;;3.60;0.80;;;;;;;;;;4832976;28;20179;-82
2021/10/16 12:15:04;;;;;;;6.53;1.47;;;18.10;58.40;;;;;;4819395;28;20207;-82
2021/10/16 12:17:27;;;;;;;4.50;1.10;;;;;;;;;;4821910;28;20199;-81
2021/10/16 12:19:57;;;;;;;3.20;0.80;;;18.00;58.40;;;;;;4835104;28;20261;-82
2021/10/16 12:22:20;;;;;;;5.57;1.27;;;;;;;;;;4835966;28;20266;-82
2021/10/16 12:24:43;;;;;;;2.83;0.67;;;;;;;;;;4819556;28;20335;-84
2021/10/16 12:27:07;;;;;;;7.03;1.60;;;18.40;58.30;;;;;;4818733;28;20594;-80
2021/10/16 12:29:31;;;;;;;3.10;0.70;;;17.50;58.00;;;;;;4835542;28;20190;-82
2021/10/16 12:31:55;;;;;;;7.47;1.63;;;17.10;57.80;;;;;;4819263;28;20187;-82
2021/10/16 12:34:20;;;;;;;5.53;1.33;;;16.70;57.50;;;;;;4836365;28;20535;-85
2021/10/16 12:36:49;;;;;;;4.20;1.10;;;16.30;57.30;;;;;;4819187;28;20212;-83
2021/10/16 12:39:12;;;;;;;4.70;1.20;;;15.90;57.00;;;;;;4836710;28;20669;-82
2021/10/16 12:41:37;;;;;;;4.33;1.10;;;15.40;57.00;;;;;;4803276;28;20251;-83
2021/10/16 12:44:13;;;;;;;8.33;1.80;;;15.00;56.80;;;;;;4819814;28;20751;-84
2021/10/16 12:46:36;;;;;;;3.63;0.83;;;;;;;;;;4830632;28;20249;-83
2021/10/16 12:49:00;;;;;;;8.87;1.90;;;14.40;56.30;;;;;;4819681;28;20197;-82
2021/10/16 12:51:43;;;;;;;6.53;1.30;;;13.50;54.70;;;;;;4837377;28;20194;-82
2021/10/16 12:54:06;;;;;;;9.87;1.50;;;;;;;;;;4817311;28;20199;-82
2021/10/16 12:56:30;;;;;;;16.13;2.43;;;13.80;55.90;;;;;;4819707;28;20231;-81
2021/10/16 12:58:53;;;;;;;11.97;1.77;;;;;;;;;;4824017;28;20199;-82
2021/10/16 13:01:16;;;;;;;7.30;1.20;;;;;;;;;;4817702;28;20301;-80
2021/10/16 13:03:38;;;;;;;6.90;1.23;;;;;;;;;;4819234;28;20207;-85
2021/10/16 13:06:02;;;;;;;16.47;2.40;;;15.60;56.50;;;;;;4819674;28;20203;-80
2021/10/16 13:08:25;;;;;;;9.43;1.50;;;;;;;;;;4836546;28;20264;-80